Orbital elements of FENGYUN 1C DEB
| Launched | 9 May 1999 |
| Flight ended | – |
| Launch site | Taiyuan Space Center, PRC |
| Owner | People's Republic of China |
| NORAD ID | 31955 |
| Date fetched |
Epoch osculation |
Inc. [°] |
Ecc. | RA asc node [hr] |
Arg Peri. [°] |
Mean anom [°] |
Mean motion [rev/day] |
Abs. mag |
| Date fetched |
Epoch osculation |
Inc. [°] |
Ecc. | RA asc node [hr] |
Arg Peri. [°] |
Mean anom [°] |
Mean motion [rev/day] |
Abs. mag |
| 2026 May 03 17:57 | 2026 Apr 29 16:12:40 | 99.2722 | 0.00437 | 1.2714 | 119.5366 | 271.1361 | 14.66495 | – |
| 2026 May 02 17:57 | 2026 Apr 29 16:12:40 | 99.2722 | 0.00437 | 1.2714 | 119.5366 | 271.1361 | 14.66495 | – |
| 2026 May 01 17:56 | 2026 Apr 29 16:12:40 | 99.2722 | 0.00437 | 1.2714 | 119.5366 | 271.1361 | 14.66495 | – |
| 2026 Apr 30 17:56 | 2026 Apr 29 16:12:40 | 99.2722 | 0.00437 | 1.2714 | 119.5366 | 271.1361 | 14.66495 | – |
| 2026 Apr 29 17:57 | 2026 Apr 23 13:14:31 | 99.2718 | 0.00432 | 0.8106 | 138.0669 | 271.1361 | 14.66495 | – |
| 2026 Apr 28 17:56 | 2026 Apr 23 13:14:31 | 99.2718 | 0.00432 | 0.8106 | 138.0669 | 271.1361 | 14.66495 | – |
| 2026 Apr 27 17:58 | 2026 Apr 23 13:14:31 | 99.2718 | 0.00432 | 0.8106 | 138.0669 | 271.1361 | 14.66495 | – |
| 2026 Apr 26 17:58 | 2026 Apr 23 13:14:31 | 99.2718 | 0.00432 | 0.8106 | 138.0669 | 271.1361 | 14.66495 | – |
| 2026 Apr 25 17:58 | 2026 Apr 23 13:14:31 | 99.2718 | 0.00432 | 0.8106 | 138.0669 | 271.1361 | 14.66495 | – |
| 2026 Apr 24 17:59 | 2026 Apr 23 13:14:31 | 99.2718 | 0.00432 | 0.8106 | 138.0669 | 271.1361 | 14.66495 | – |
| 2026 Apr 23 17:57 | 2026 Apr 19 04:34:47 | 99.2729 | 0.00427 | 0.4825 | 151.5386 | 271.1361 | 14.66495 | – |
| 2026 Apr 22 17:57 | 2026 Apr 19 04:34:47 | 99.2729 | 0.00427 | 0.4825 | 151.5386 | 271.1361 | 14.66495 | – |
| 2026 Apr 21 17:57 | 2026 Apr 19 04:34:47 | 99.2729 | 0.00427 | 0.4825 | 151.5386 | 271.1361 | 14.66495 | – |
| 2026 Apr 20 17:57 | 2026 Apr 19 04:34:47 | 99.2729 | 0.00427 | 0.4825 | 151.5386 | 271.1361 | 14.66495 | – |
| 2026 Apr 19 17:58 | 2026 Apr 19 04:34:47 | 99.2729 | 0.00427 | 0.4825 | 151.5386 | 271.1361 | 14.66495 | – |
| 2026 Apr 18 17:56 | 2026 Apr 12 16:26:33 | 99.2729 | 0.00423 | 23.9929 | 171.4680 | 271.1361 | 14.66495 | – |
| 2026 Apr 16 17:57 | 2026 Apr 12 16:26:33 | 99.2729 | 0.00423 | 23.9929 | 171.4680 | 271.1361 | 14.66495 | – |
| 2026 Apr 14 17:57 | 2026 Apr 12 16:26:33 | 99.2729 | 0.00423 | 23.9929 | 171.4680 | 271.1361 | 14.66495 | – |
| 2026 Apr 13 17:57 | 2026 Apr 12 16:26:33 | 99.2729 | 0.00423 | 23.9929 | 171.4680 | 271.1361 | 14.66495 | – |
| 2026 Apr 12 17:57 | 2026 Apr 08 11:34:21 | 99.2726 | 0.00420 | 23.6767 | 184.6330 | 271.1361 | 14.66495 | – |
| 2026 Apr 11 17:57 | 2026 Apr 08 11:34:21 | 99.2726 | 0.00420 | 23.6767 | 184.6330 | 271.1361 | 14.66495 | – |
| 2026 Apr 10 17:58 | 2026 Apr 08 11:34:21 | 99.2726 | 0.00420 | 23.6767 | 184.6330 | 271.1361 | 14.66495 | – |
| 2026 Apr 09 18:01 | 2026 Apr 08 11:34:21 | 99.2726 | 0.00420 | 23.6767 | 184.6330 | 271.1361 | 14.66495 | – |
| 2026 Apr 08 17:57 | 2026 Apr 08 11:34:21 | 99.2726 | 0.00420 | 23.6767 | 184.6330 | 271.1361 | 14.66495 | – |
| 2026 Apr 07 17:57 | 2026 Apr 02 04:46:23 | 99.2745 | 0.00418 | 23.2039 | 204.5806 | 271.1361 | 14.66495 | – |
| 2026 Apr 06 17:57 | 2026 Apr 02 04:46:23 | 99.2745 | 0.00418 | 23.2039 | 204.5806 | 271.1361 | 14.66495 | – |